createdAt,value
2018-12-31T21:02:12.351Z,102083.29
2018-12-31T21:04:43.902Z,102079.09
2018-12-31T21:07:15.419Z,102081.19
2018-12-31T21:09:46.833Z,102086.45
2018-12-31T21:12:24.134Z,102081.76
2018-12-31T21:14:55.454Z,102084.03
2018-12-31T21:17:26.955Z,102084.13
2018-12-31T21:19:58.342Z,102080.42
2018-12-31T21:22:29.639Z,102083.02
2018-12-31T21:25:04.059Z,102080.23
2018-12-31T21:27:35.778Z,102082.30
2018-12-31T21:30:11.736Z,102078.89
2018-12-31T21:32:44.142Z,102081.86
2018-12-31T21:35:15.527Z,102079.02
2018-12-31T21:37:47.177Z,102074.95
2018-12-31T21:40:21.941Z,102071.46
2018-12-31T21:42:53.340Z,102070.39
2018-12-31T21:45:26.191Z,102079.56
2018-12-31T21:47:59.576Z,102071.80
2018-12-31T21:50:30.930Z,102078.45
2018-12-31T21:53:02.242Z,102082.97
2018-12-31T21:55:33.608Z,102080.39
2018-12-31T21:58:05.210Z,102080.62
2018-12-31T22:00:36.686Z,102084.05
2018-12-31T22:03:08.235Z,102083.48
2018-12-31T22:05:39.797Z,102081.72
2018-12-31T22:08:11.235Z,102079.00
2018-12-31T22:10:42.753Z,102082.64
2018-12-31T22:13:14.188Z,102083.41
2018-12-31T22:15:45.884Z,102086.59
2018-12-31T22:18:19.052Z,102092.08
2018-12-31T22:20:50.777Z,102090.55
2018-12-31T22:23:22.136Z,102091.47
2018-12-31T22:25:53.587Z,102086.91
2018-12-31T22:28:24.951Z,102083.03
2018-12-31T22:30:56.340Z,102074.35
2018-12-31T22:33:31.372Z,102077.90
2018-12-31T22:36:02.981Z,102081.81
2018-12-31T22:38:34.698Z,102070.08
2018-12-31T22:41:06.311Z,102068.22
2018-12-31T22:43:37.805Z,102072.89
2018-12-31T22:46:09.241Z,102067.52
2018-12-31T22:48:42.279Z,102062.84
2018-12-31T22:51:13.625Z,102061.46
2018-12-31T22:53:45.119Z,102067.03
2018-12-31T22:56:16.650Z,102060.87
2018-12-31T22:58:48.146Z,102061.66
2018-12-31T23:01:19.595Z,102063.72
2018-12-31T23:03:51.277Z,102066.78
2018-12-31T23:06:22.856Z,102060.48
2018-12-31T23:08:54.293Z,102058.56
2018-12-31T23:11:25.708Z,102058.82
2018-12-31T23:13:57.657Z,102062.28
2018-12-31T23:16:29.117Z,102059.24
2018-12-31T23:19:00.422Z,102065.38
2018-12-31T23:21:32.026Z,102063.41
2018-12-31T23:24:03.568Z,102063.52
2018-12-31T23:26:35.197Z,102065.06
2018-12-31T23:29:06.801Z,102058.96
2018-12-31T23:31:38.102Z,102064.48
2018-12-31T23:34:09.665Z,102059.75
2018-12-31T23:36:41.366Z,102059.81
2018-12-31T23:39:12.797Z,102064.11
2018-12-31T23:41:44.167Z,102064.11
2018-12-31T23:44:15.569Z,102059.81
2018-12-31T23:46:53.649Z,102056.55
2018-12-31T23:49:26.696Z,102060.59
2018-12-31T23:51:58.155Z,102056.77
2018-12-31T23:54:29.771Z,102065.88
2018-12-31T23:57:01.421Z,102059.86
2018-12-31T23:59:32.872Z,102057.30
